createdAt,value
2017-12-14T00:02:20.656Z,0.80
2017-12-14T00:04:48.835Z,0.83
2017-12-14T00:07:16.251Z,1.00
2017-12-14T00:09:44.467Z,1.30
2017-12-14T00:12:11.880Z,1.30
2017-12-14T00:14:39.307Z,1.20
2017-12-14T00:17:07.488Z,1.13
2017-12-14T00:19:34.956Z,1.20
2017-12-14T00:22:02.380Z,0.90
2017-12-14T00:24:29.305Z,0.90
2017-12-14T00:26:56.719Z,1.30
2017-12-14T00:29:24.147Z,1.27
2017-12-14T00:31:52.339Z,1.33
2017-12-14T00:34:19.740Z,0.90
2017-12-14T00:36:47.156Z,1.30
2017-12-14T00:39:14.584Z,1.00
2017-12-14T00:41:42.020Z,0.97
2017-12-14T00:44:09.424Z,1.20
2017-12-14T00:46:37.617Z,1.30
2017-12-14T00:49:05.022Z,0.90
2017-12-14T00:51:33.210Z,0.67
2017-12-14T00:54:00.667Z,0.70
2017-12-14T00:56:28.112Z,0.70
2017-12-14T00:58:55.547Z,0.70
2017-12-14T01:01:22.988Z,0.70
2017-12-14T01:03:50.412Z,0.70
2017-12-14T01:06:17.838Z,0.60
2017-12-14T01:08:45.248Z,0.60
2017-12-14T01:11:12.684Z,0.50
2017-12-14T01:13:40.892Z,0.73
2017-12-14T01:16:08.304Z,0.70
2017-12-14T01:18:36.487Z,0.90
2017-12-14T01:21:03.909Z,0.70
2017-12-14T01:23:32.088Z,0.80
2017-12-14T01:25:59.500Z,0.70
2017-12-14T01:28:27.701Z,0.70
2017-12-14T01:30:55.111Z,0.70
2017-12-14T01:33:23.316Z,0.90
2017-12-14T01:35:50.740Z,1.13
2017-12-14T01:38:18.153Z,0.90
2017-12-14T01:40:46.332Z,1.10
2017-12-14T01:43:13.796Z,0.80
2017-12-14T01:45:41.208Z,1.10
2017-12-14T01:48:08.630Z,0.97
2017-12-14T01:50:36.808Z,0.97
2017-12-14T01:53:04.228Z,0.70
2017-12-14T01:55:32.403Z,0.70
2017-12-14T01:57:59.815Z,0.60
2017-12-14T02:00:27.235Z,0.50
2017-12-14T02:02:54.663Z,0.60
2017-12-14T02:05:22.072Z,0.50
2017-12-14T02:07:49.487Z,0.40
2017-12-14T02:10:17.007Z,0.47
2017-12-14T02:12:46.059Z,0.40
2017-12-14T02:15:13.487Z,0.40
2017-12-14T02:17:40.920Z,0.60
2017-12-14T02:20:08.332Z,0.60
2017-12-14T02:22:36.557Z,0.50
2017-12-14T02:25:04.687Z,0.50
2017-12-14T02:27:32.095Z,0.60
2017-12-14T02:30:00.289Z,0.57
2017-12-14T02:32:27.703Z,0.67
2017-12-14T02:34:55.890Z,0.53
2017-12-14T02:37:23.316Z,0.47
2017-12-14T02:39:50.731Z,0.70
2017-12-14T02:42:18.921Z,0.70
2017-12-14T02:44:46.328Z,0.50
2017-12-14T02:47:13.752Z,0.80
2017-12-14T02:49:41.180Z,0.43
2017-12-14T02:52:08.602Z,0.60
2017-12-14T02:54:36.020Z,0.90
2017-12-14T02:57:03.437Z,0.60
2017-12-14T02:59:30.851Z,0.77
2017-12-14T03:01:58.268Z,0.90
2017-12-14T03:04:25.705Z,0.70
2017-12-14T03:06:53.116Z,0.87
2017-12-14T03:09:21.310Z,0.80
2017-12-14T03:11:48.735Z,0.70
2017-12-14T03:14:16.156Z,0.67
2017-12-14T03:16:44.335Z,0.50
2017-12-14T03:19:11.756Z,0.50
2017-12-14T03:21:39.949Z,0.63
2017-12-14T03:24:07.409Z,0.60
2017-12-14T03:26:34.845Z,0.80
2017-12-14T03:29:02.284Z,0.60
2017-12-14T03:31:29.704Z,0.70
2017-12-14T03:33:57.112Z,0.83
2017-12-14T03:36:25.296Z,0.63
2017-12-14T03:38:52.724Z,0.77
2017-12-14T03:41:20.923Z,0.90
2017-12-14T03:43:48.352Z,0.70
2017-12-14T03:46:15.817Z,0.90
2017-12-14T03:48:43.239Z,0.80
2017-12-14T03:51:10.660Z,0.53
2017-12-14T03:53:38.096Z,1.40
2017-12-14T03:56:06.280Z,0.70
2017-12-14T03:58:33.736Z,0.80
2017-12-14T04:01:01.144Z,0.77
2017-12-14T04:03:28.651Z,0.70
2017-12-14T04:05:56.056Z,0.50
2017-12-14T04:08:23.480Z,0.50
2017-12-14T04:10:50.905Z,0.70
2017-12-14T04:13:19.100Z,0.40
2017-12-14T04:15:46.504Z,0.53
2017-12-14T04:18:14.684Z,0.50
2017-12-14T04:20:42.099Z,0.40
2017-12-14T04:23:10.284Z,0.50
2017-12-14T04:25:37.700Z,0.80
2017-12-14T04:28:05.887Z,1.10
2017-12-14T04:30:33.303Z,0.77
2017-12-14T04:33:00.731Z,0.80
2017-12-14T04:35:28.928Z,0.60
2017-12-14T04:37:56.347Z,0.50
2017-12-14T04:40:23.764Z,0.50
2017-12-14T04:42:51.176Z,0.60
2017-12-14T04:45:18.600Z,0.60
2017-12-14T04:47:46.025Z,0.60
2017-12-14T04:50:13.445Z,0.67
2017-12-14T04:52:41.636Z,0.70
2017-12-14T04:55:09.051Z,0.80
2017-12-14T04:57:36.465Z,0.90
2017-12-14T05:00:03.895Z,0.80
2017-12-14T05:02:31.300Z,0.73
2017-12-14T05:04:58.732Z,0.60
2017-12-14T05:07:26.145Z,0.80
2017-12-14T05:09:54.332Z,0.93
2017-12-14T05:12:21.764Z,1.10
2017-12-14T05:14:49.181Z,0.77
2017-12-14T05:17:17.368Z,0.60
2017-12-14T05:19:44.804Z,0.70
2017-12-14T05:22:12.980Z,0.70
2017-12-14T05:24:40.404Z,0.70
2017-12-14T05:27:07.842Z,0.70
2017-12-14T05:29:36.012Z,0.50
2017-12-14T05:32:03.435Z,0.60
2017-12-14T05:34:31.619Z,0.73
2017-12-14T05:36:59.053Z,0.73
2017-12-14T05:39:26.482Z,0.70
2017-12-14T05:41:53.905Z,0.63
2017-12-14T05:44:22.106Z,1.30
2017-12-14T05:46:49.540Z,0.70
2017-12-14T05:49:16.951Z,0.90
2017-12-14T05:51:45.144Z,1.00
2017-12-14T05:54:12.572Z,1.00
2017-12-14T05:56:40.007Z,1.10
2017-12-14T05:59:08.188Z,0.93
2017-12-14T06:01:35.612Z,0.80
2017-12-14T06:04:03.045Z,1.20
2017-12-14T06:06:31.236Z,0.93
2017-12-14T06:08:58.652Z,1.57
2017-12-14T06:11:26.067Z,1.20
2017-12-14T06:13:54.257Z,1.33
2017-12-14T06:16:21.680Z,1.50
2017-12-14T06:18:49.860Z,1.37
2017-12-14T06:21:17.287Z,1.27
2017-12-14T06:23:44.700Z,1.70
2017-12-14T06:26:12.124Z,1.03
2017-12-14T06:28:39.540Z,1.60
2017-12-14T06:31:06.956Z,1.33
2017-12-14T06:33:34.436Z,1.20
2017-12-14T06:36:01.863Z,0.90
2017-12-14T06:38:29.320Z,1.40
2017-12-14T06:40:56.742Z,1.53
2017-12-14T06:43:24.151Z,1.70
2017-12-14T06:45:52.340Z,1.40
2017-12-14T06:48:19.752Z,1.50
2017-12-14T06:50:47.944Z,1.43
2017-12-14T06:53:15.380Z,1.23
2017-12-14T06:55:42.787Z,1.40
2017-12-14T06:58:10.983Z,1.40
2017-12-14T07:00:38.420Z,1.13
2017-12-14T07:03:17.655Z,1.30
2017-12-14T07:05:45.067Z,1.50
2017-12-14T07:08:12.484Z,1.70
2017-12-14T07:10:40.683Z,1.23
2017-12-14T07:13:08.098Z,2.00
2017-12-14T07:15:36.284Z,2.60
2017-12-14T07:18:03.706Z,1.50
2017-12-14T07:20:31.187Z,1.30
2017-12-14T07:22:58.620Z,2.17
2017-12-14T07:25:26.027Z,1.80
2017-12-14T07:27:53.443Z,1.87
2017-12-14T07:30:21.620Z,1.53
2017-12-14T07:32:49.060Z,1.83
2017-12-14T07:35:17.291Z,2.60
2017-12-14T07:37:44.672Z,1.53
2017-12-14T07:40:12.092Z,1.57
2017-12-14T07:42:52.267Z,2.63
2017-12-14T07:45:26.480Z,1.97
2017-12-14T07:47:59.779Z,1.70
2017-12-14T07:50:27.212Z,1.97
2017-12-14T07:52:54.644Z,1.70
2017-12-14T07:55:22.076Z,2.13
2017-12-14T07:57:49.484Z,2.87
2017-12-14T08:00:17.682Z,1.63
2017-12-14T08:02:45.102Z,1.93
2017-12-14T08:05:12.531Z,1.60
2017-12-14T08:07:39.947Z,2.20
2017-12-14T08:10:08.132Z,2.00
2017-12-14T08:12:35.559Z,1.50
2017-12-14T08:15:03.756Z,1.63
2017-12-14T08:17:31.172Z,2.03
2017-12-14T08:19:58.598Z,1.77
2017-12-14T08:22:26.784Z,1.90
2017-12-14T08:24:54.195Z,1.50
2017-12-14T08:27:22.404Z,1.60
2017-12-14T08:29:49.831Z,2.10
2017-12-14T08:32:17.239Z,1.43
2017-12-14T08:34:45.435Z,1.60
2017-12-14T08:37:12.844Z,1.50
2017-12-14T08:39:41.028Z,1.70
2017-12-14T08:42:08.444Z,1.80
2017-12-14T08:44:36.636Z,1.73
2017-12-14T08:47:04.051Z,1.80
2017-12-14T08:49:31.484Z,2.20
2017-12-14T08:51:59.685Z,1.27
2017-12-14T08:54:27.098Z,1.60
2017-12-14T08:56:54.508Z,1.80
2017-12-14T08:59:22.705Z,1.80
2017-12-14T09:01:50.160Z,1.60
2017-12-14T09:04:17.572Z,1.73
2017-12-14T09:06:45.770Z,1.90
2017-12-14T09:09:13.200Z,2.33
2017-12-14T09:11:40.616Z,2.77
2017-12-14T09:14:08.860Z,1.80
2017-12-14T09:16:37.049Z,2.00
2017-12-14T09:19:04.456Z,1.80
2017-12-14T09:21:32.645Z,1.60
2017-12-14T09:24:00.058Z,2.00
2017-12-14T09:26:27.486Z,2.40
2017-12-14T09:28:54.891Z,1.53
2017-12-14T09:31:22.324Z,1.47
2017-12-14T09:33:49.764Z,1.70
2017-12-14T09:36:17.191Z,2.57
2017-12-14T09:38:44.661Z,1.80
2017-12-14T09:41:12.802Z,1.60
2017-12-14T09:43:40.219Z,2.10
2017-12-14T09:46:08.397Z,1.93
2017-12-14T09:48:35.810Z,1.60
2017-12-14T09:51:04.000Z,1.50
2017-12-14T09:53:31.731Z,2.50
2017-12-14T09:55:59.160Z,2.80
2017-12-14T09:58:27.361Z,1.90
2017-12-14T10:00:54.764Z,1.60
2017-12-14T10:03:22.945Z,1.57
2017-12-14T10:05:50.361Z,1.63
2017-12-14T10:08:18.565Z,1.97
2017-12-14T10:10:45.987Z,1.30
2017-12-14T10:13:13.405Z,2.23
2017-12-14T10:15:41.601Z,1.90
2017-12-14T10:18:09.004Z,2.13
2017-12-14T10:20:37.209Z,1.90
2017-12-14T10:23:04.608Z,1.60
2017-12-14T10:25:32.795Z,2.20
2017-12-14T10:28:00.208Z,1.50
2017-12-14T10:30:28.383Z,1.50
2017-12-14T10:32:55.803Z,1.67
2017-12-14T10:35:23.992Z,1.80
2017-12-14T10:37:51.424Z,1.33
2017-12-14T10:40:18.843Z,1.47
2017-12-14T10:42:47.038Z,2.67
2017-12-14T10:45:14.447Z,1.80
2017-12-14T10:47:42.633Z,1.43
2017-12-14T10:50:10.048Z,1.43
2017-12-14T10:52:38.233Z,1.87
2017-12-14T10:55:05.652Z,1.53
2017-12-14T10:57:33.856Z,1.73
2017-12-14T11:00:01.308Z,1.67
2017-12-14T11:02:28.729Z,2.20
2017-12-14T11:04:56.139Z,1.97
2017-12-14T11:07:23.552Z,1.80
2017-12-14T11:09:50.983Z,1.43
2017-12-14T11:12:19.178Z,1.73
2017-12-14T11:14:47.360Z,1.80
2017-12-14T11:17:14.776Z,1.37
2017-12-14T11:19:43.529Z,1.80
2017-12-14T11:22:11.724Z,1.73
2017-12-14T11:24:39.128Z,2.07
2017-12-14T11:27:06.537Z,1.30
2017-12-14T11:29:33.984Z,1.70
2017-12-14T11:32:01.400Z,1.60
2017-12-14T11:34:28.812Z,1.93
2017-12-14T11:36:57.036Z,1.80
2017-12-14T11:39:24.460Z,1.77
2017-12-14T11:41:51.876Z,1.30
2017-12-14T11:44:19.340Z,2.10
2017-12-14T11:46:46.760Z,2.40
2017-12-14T11:49:14.181Z,2.33
2017-12-14T11:51:41.600Z,3.37
2017-12-14T11:54:09.018Z,2.47
2017-12-14T11:56:36.544Z,1.70
2017-12-14T11:59:03.960Z,2.53
2017-12-14T12:01:31.388Z,1.93
2017-12-14T12:03:59.567Z,1.83
2017-12-14T12:06:26.996Z,2.27
2017-12-14T12:08:54.415Z,1.77
2017-12-14T12:11:22.612Z,1.43
2017-12-14T12:13:50.049Z,1.80
2017-12-14T12:16:17.456Z,1.90
2017-12-14T12:18:45.636Z,1.60
2017-12-14T12:21:13.111Z,1.60
2017-12-14T12:23:40.533Z,2.03
2017-12-14T12:26:07.944Z,1.93
2017-12-14T12:28:36.127Z,2.00
2017-12-14T12:31:03.596Z,1.60
2017-12-14T12:33:31.033Z,2.17
2017-12-14T12:35:58.438Z,1.60
2017-12-14T12:38:25.856Z,2.17
2017-12-14T12:40:53.275Z,1.60
2017-12-14T12:43:20.708Z,1.47
2017-12-14T12:45:48.119Z,1.90
2017-12-14T12:48:15.544Z,1.70
2017-12-14T12:50:42.972Z,5.47
2017-12-14T12:53:11.175Z,1.83
2017-12-14T12:55:38.605Z,1.80
2017-12-14T12:58:06.060Z,1.70
2017-12-14T13:00:33.475Z,2.00
2017-12-14T13:03:00.905Z,2.20
2017-12-14T13:05:29.084Z,2.10
2017-12-14T13:07:56.507Z,1.90
2017-12-14T13:10:24.692Z,2.10
2017-12-14T13:12:52.123Z,2.27
2017-12-14T13:15:19.560Z,2.70
2017-12-14T13:17:46.976Z,2.50
2017-12-14T13:20:15.157Z,2.07
2017-12-14T13:22:42.590Z,2.03
2017-12-14T13:25:10.763Z,1.87
2017-12-14T13:27:38.207Z,2.20
2017-12-14T13:30:05.619Z,2.30
2017-12-14T13:32:33.824Z,2.30
2017-12-14T13:35:01.248Z,2.07
2017-12-14T13:37:28.668Z,2.00
2017-12-14T13:39:56.856Z,1.90
2017-12-14T13:42:24.286Z,2.10
2017-12-14T13:44:51.705Z,2.07
2017-12-14T13:47:19.968Z,2.30
2017-12-14T13:49:47.311Z,2.10
2017-12-14T13:52:15.492Z,1.67
2017-12-14T13:54:42.912Z,2.00
2017-12-14T13:57:11.120Z,2.10
2017-12-14T13:59:38.554Z,1.67
2017-12-14T14:02:05.948Z,2.10
2017-12-14T14:04:34.158Z,2.23
2017-12-14T14:07:01.595Z,1.57
2017-12-14T14:09:28.991Z,2.10
2017-12-14T14:11:57.183Z,2.00
2017-12-14T14:14:24.588Z,2.20
2017-12-14T14:16:52.799Z,2.30
2017-12-14T14:19:20.235Z,2.20
2017-12-14T14:21:47.672Z,1.50
2017-12-14T14:24:15.088Z,2.67
2017-12-14T14:26:42.529Z,2.10
2017-12-14T14:29:09.948Z,2.30
2017-12-14T14:31:38.144Z,1.50
2017-12-14T14:34:05.563Z,2.50
2017-12-14T14:36:32.996Z,1.73
2017-12-14T14:39:00.427Z,1.83
2017-12-14T14:41:27.836Z,3.00
2017-12-14T14:43:55.267Z,2.53
2017-12-14T14:46:22.728Z,3.13
2017-12-14T14:48:50.135Z,2.60
2017-12-14T14:51:17.556Z,2.13
2017-12-14T14:53:44.989Z,2.13
2017-12-14T14:56:13.228Z,2.43
2017-12-14T14:58:40.610Z,1.93
2017-12-14T15:01:08.028Z,2.00
2017-12-14T15:03:36.203Z,2.30
2017-12-14T15:06:03.644Z,1.90
2017-12-14T15:08:31.817Z,1.90
2017-12-14T15:10:59.231Z,2.17
2017-12-14T15:13:27.424Z,2.23
2017-12-14T15:15:54.853Z,2.17
2017-12-14T15:18:22.264Z,2.03
2017-12-14T15:20:50.463Z,1.57
2017-12-14T15:23:17.884Z,2.17
2017-12-14T15:25:45.304Z,2.53
2017-12-14T15:28:12.732Z,1.70
2017-12-14T15:30:40.151Z,2.30
2017-12-14T15:33:07.584Z,2.33
2017-12-14T15:35:35.000Z,2.37
2017-12-14T15:38:02.440Z,2.10
2017-12-14T15:40:29.919Z,2.20
2017-12-14T15:42:57.368Z,2.10
2017-12-14T15:45:24.772Z,2.30
2017-12-14T15:47:52.188Z,1.37
2017-12-14T15:50:20.399Z,1.80
2017-12-14T15:52:47.820Z,1.70
2017-12-14T15:55:15.236Z,1.70
2017-12-14T15:57:42.665Z,2.17
2017-12-14T16:00:10.852Z,2.00
2017-12-14T16:02:38.262Z,1.90
2017-12-14T16:05:06.440Z,2.23
2017-12-14T16:07:33.924Z,1.67
2017-12-14T16:10:01.370Z,2.13
2017-12-14T16:12:28.792Z,2.27
2017-12-14T16:14:56.208Z,2.07
2017-12-14T16:17:23.623Z,1.90
2017-12-14T16:19:51.821Z,1.70
2017-12-14T16:22:19.226Z,1.73
2017-12-14T16:24:47.426Z,2.17
2017-12-14T16:27:14.846Z,1.97
2017-12-14T16:29:42.261Z,2.03
2017-12-14T16:32:10.465Z,2.37
2017-12-14T16:34:37.895Z,2.10
2017-12-14T16:37:05.325Z,1.97
2017-12-14T16:39:32.756Z,2.70
2017-12-14T16:42:00.935Z,2.40
2017-12-14T16:44:28.364Z,2.47
2017-12-14T16:46:55.795Z,2.27
2017-12-14T16:49:23.995Z,1.77
2017-12-14T16:51:51.432Z,1.67
2017-12-14T16:54:18.835Z,2.03
2017-12-14T16:56:47.036Z,1.90
2017-12-14T16:59:14.455Z,2.10
2017-12-14T17:01:41.869Z,2.47
2017-12-14T17:04:10.086Z,1.60
2017-12-14T17:06:37.503Z,2.40
2017-12-14T17:09:04.924Z,2.10
2017-12-14T17:11:33.132Z,2.10
2017-12-14T17:14:00.579Z,2.10
2017-12-14T17:16:28.003Z,2.20
2017-12-14T17:18:55.428Z,2.10
2017-12-14T17:21:22.864Z,2.17
2017-12-14T17:23:50.299Z,2.10
2017-12-14T17:26:17.712Z,2.20
2017-12-14T17:28:46.649Z,2.00
2017-12-14T17:31:14.063Z,2.97
2017-12-14T17:33:41.508Z,2.60
2017-12-14T17:36:08.920Z,2.57
2017-12-14T17:38:37.115Z,2.63
2017-12-14T17:41:04.548Z,2.33
2017-12-14T17:43:31.960Z,2.20
2017-12-14T17:46:00.145Z,1.90
2017-12-14T17:48:27.629Z,2.40
2017-12-14T17:50:55.063Z,2.13
2017-12-14T17:53:22.492Z,2.60
2017-12-14T17:55:49.921Z,2.10
2017-12-14T17:58:17.337Z,2.60
2017-12-14T18:00:45.532Z,1.90
2017-12-14T18:03:12.952Z,2.20
2017-12-14T18:05:40.374Z,2.30
2017-12-14T18:08:08.556Z,2.03
2017-12-14T18:10:35.973Z,2.83
2017-12-14T18:13:04.168Z,2.00
2017-12-14T18:15:31.624Z,2.13
2017-12-14T18:17:59.060Z,2.20
2017-12-14T18:20:26.492Z,2.10
2017-12-14T18:22:53.912Z,1.77
2017-12-14T18:25:21.332Z,2.43
2017-12-14T18:27:49.520Z,2.83
2017-12-14T18:30:16.949Z,2.60
2017-12-14T18:32:44.369Z,2.33
2017-12-14T18:35:11.792Z,1.63
2017-12-14T18:37:39.203Z,2.10
2017-12-14T18:40:06.627Z,2.17
2017-12-14T18:42:34.056Z,1.93
2017-12-14T18:45:01.493Z,2.20
2017-12-14T18:47:29.692Z,2.20
2017-12-14T18:49:57.111Z,2.20
2017-12-14T18:52:24.541Z,1.70
2017-12-14T18:54:52.728Z,2.13
2017-12-14T18:57:20.144Z,1.70
2017-12-14T18:59:47.572Z,2.00
2017-12-14T19:02:15.757Z,2.20
2017-12-14T19:04:43.186Z,2.33
2017-12-14T19:07:10.695Z,1.83
2017-12-14T19:09:38.105Z,2.20
2017-12-14T19:12:05.524Z,2.27
2017-12-14T19:14:33.394Z,2.70
2017-12-14T19:17:00.824Z,1.90
2017-12-14T19:19:28.231Z,1.73
2017-12-14T19:21:55.648Z,1.90
2017-12-14T19:24:23.163Z,2.40
2017-12-14T19:26:50.562Z,1.80
2017-12-14T19:29:18.772Z,1.77
2017-12-14T19:31:46.188Z,2.13
2017-12-14T19:34:13.607Z,2.07
2017-12-14T19:36:41.075Z,2.10
2017-12-14T19:39:08.498Z,2.23
2017-12-14T19:41:35.908Z,4.67
2017-12-14T19:44:04.114Z,2.00
2017-12-14T19:46:31.544Z,1.73
2017-12-14T19:48:59.009Z,1.53
2017-12-14T19:51:26.416Z,2.20
2017-12-14T19:53:53.840Z,2.73
2017-12-14T19:56:22.040Z,1.80
2017-12-14T19:58:49.455Z,2.03
2017-12-14T20:01:16.927Z,3.67
2017-12-14T20:03:44.328Z,2.20
2017-12-14T20:06:12.503Z,1.80
2017-12-14T20:08:39.974Z,2.40
2017-12-14T20:11:07.391Z,2.20
2017-12-14T20:13:34.820Z,1.50
2017-12-14T20:16:02.240Z,1.77
2017-12-14T20:18:29.659Z,1.90
2017-12-14T20:20:57.075Z,1.47
2017-12-14T20:23:24.575Z,1.23
2017-12-14T20:25:51.981Z,1.40
2017-12-14T20:28:19.411Z,1.50
2017-12-14T20:30:46.875Z,1.20
2017-12-14T20:33:14.335Z,1.20
2017-12-14T20:35:41.735Z,1.30
2017-12-14T20:38:09.153Z,1.30
2017-12-14T20:40:36.619Z,1.20
2017-12-14T20:43:04.126Z,1.13
2017-12-14T20:45:32.313Z,1.20
2017-12-14T20:47:59.795Z,0.90
2017-12-14T20:50:27.200Z,1.00
2017-12-14T20:52:54.679Z,1.70
2017-12-14T20:55:22.080Z,1.17
2017-12-14T20:57:49.588Z,0.90
2017-12-14T21:00:18.635Z,1.60
2017-12-14T21:02:46.107Z,1.10
2017-12-14T21:05:14.298Z,1.13
2017-12-14T21:07:41.803Z,1.43
2017-12-14T21:10:09.205Z,1.10
2017-12-14T21:12:36.629Z,0.90
2017-12-14T21:15:04.107Z,1.10
2017-12-14T21:17:31.545Z,1.20
2017-12-14T21:19:58.954Z,1.10
2017-12-14T21:22:26.435Z,1.30
2017-12-14T21:24:53.898Z,1.23
2017-12-14T21:27:22.119Z,1.20
2017-12-14T21:29:49.533Z,1.20
2017-12-14T21:32:16.995Z,1.40
2017-12-14T21:34:44.399Z,1.40
2017-12-14T21:37:11.821Z,1.90
2017-12-14T21:39:40.022Z,1.20
2017-12-14T21:42:07.496Z,1.30
2017-12-14T21:44:34.954Z,1.40
2017-12-14T21:47:02.383Z,1.17
2017-12-14T21:49:29.788Z,0.93
2017-12-14T21:51:57.224Z,1.10
2017-12-14T21:54:24.698Z,1.20
2017-12-14T21:56:52.108Z,1.13
2017-12-14T21:59:20.088Z,1.23
2017-12-14T22:01:47.512Z,1.50
2017-12-14T22:04:14.920Z,1.33
2017-12-14T22:06:42.351Z,1.90
2017-12-14T22:09:10.524Z,1.57
2017-12-14T22:11:37.943Z,1.57
2017-12-14T22:14:06.971Z,1.40
2017-12-14T22:16:36.231Z,1.30
2017-12-14T22:19:04.054Z,1.27
2017-12-14T22:21:31.910Z,1.17
2017-12-14T22:23:59.354Z,1.10
2017-12-14T22:26:27.584Z,1.40
2017-12-14T22:28:55.047Z,1.50
2017-12-14T22:31:22.507Z,1.10
2017-12-14T22:33:50.726Z,1.30
2017-12-14T22:36:18.174Z,1.40
2017-12-14T22:38:45.639Z,1.33
2017-12-14T22:41:13.074Z,1.70
2017-12-14T22:43:41.264Z,1.33
2017-12-14T22:46:08.708Z,1.47
2017-12-14T22:48:36.108Z,1.27
2017-12-14T22:51:03.566Z,1.13
2017-12-14T22:53:31.781Z,1.10
2017-12-14T22:55:59.229Z,1.00
2017-12-14T22:58:26.643Z,1.27
2017-12-14T23:00:54.068Z,0.83
2017-12-14T23:03:21.500Z,0.90
2017-12-14T23:05:48.940Z,1.00
2017-12-14T23:08:17.116Z,1.10
2017-12-14T23:10:44.535Z,0.97
2017-12-14T23:13:12.740Z,0.93
2017-12-14T23:15:40.148Z,1.00
2017-12-14T23:18:07.587Z,0.90
2017-12-14T23:20:35.764Z,1.20
2017-12-14T23:23:03.172Z,0.80
2017-12-14T23:25:31.363Z,0.90
2017-12-14T23:27:58.776Z,1.00
2017-12-14T23:30:26.960Z,1.03
2017-12-14T23:32:54.373Z,0.90
2017-12-14T23:35:22.556Z,0.90
2017-12-14T23:37:49.977Z,1.10
2017-12-14T23:40:18.160Z,0.90
2017-12-14T23:42:45.580Z,1.10
2017-12-14T23:45:13.847Z,1.00
2017-12-14T23:47:41.255Z,1.10
2017-12-14T23:50:08.678Z,0.90
2017-12-14T23:52:36.103Z,1.20
2017-12-14T23:55:03.533Z,0.90
2017-12-14T23:57:30.949Z,1.10
2017-12-14T23:59:59.136Z,0.87
